sensor_id;sensor_type;location;lat;lon;timestamp;P1;durP1;ratioP1;P2;durP2;ratioP2
14603;SDS011;7388;51.078;13.740;2023-02-15T00:01:40;34.85;;;19.92;;
14603;SDS011;7388;51.078;13.740;2023-02-15T00:04:06;40.80;;;21.35;;
14603;SDS011;7388;51.078;13.740;2023-02-15T00:06:33;33.67;;;19.05;;
14603;SDS011;7388;51.078;13.740;2023-02-15T00:08:59;32.33;;;19.97;;
14603;SDS011;7388;51.078;13.740;2023-02-15T00:11:25;33.20;;;19.90;;
14603;SDS011;7388;51.078;13.740;2023-02-15T00:14:22;35.50;;;20.95;;
14603;SDS011;7388;51.078;13.740;2023-02-15T00:16:49;38.05;;;20.38;;
14603;SDS011;7388;51.078;13.740;2023-02-15T00:19:16;41.50;;;21.52;;
14603;SDS011;7388;51.078;13.740;2023-02-15T00:21:44;31.35;;;20.15;;
14603;SDS011;7388;51.078;13.740;2023-02-15T00:24:11;30.35;;;18.95;;
14603;SDS011;7388;51.078;13.740;2023-02-15T00:26:39;31.95;;;20.83;;
14603;SDS011;7388;51.078;13.740;2023-02-15T00:29:05;33.72;;;19.48;;
14603;SDS011;7388;51.078;13.740;2023-02-15T00:31:32;33.80;;;19.02;;
14603;SDS011;7388;51.078;13.740;2023-02-15T00:34:06;37.38;;;21.65;;
14603;SDS011;7388;51.078;13.740;2023-02-15T00:36:52;29.02;;;19.73;;
14603;SDS011;7388;51.078;13.740;2023-02-15T00:39:18;30.65;;;19.25;;
14603;SDS011;7388;51.078;13.740;2023-02-15T00:41:45;33.90;;;21.48;;
14603;SDS011;7388;51.078;13.740;2023-02-15T00:44:11;34.65;;;21.00;;
14603;SDS011;7388;51.078;13.740;2023-02-15T00:46:37;37.63;;;20.23;;
14603;SDS011;7388;51.078;13.740;2023-02-15T00:49:03;38.30;;;19.60;;
14603;SDS011;7388;51.078;13.740;2023-02-15T00:51:30;36.65;;;19.15;;
14603;SDS011;7388;51.078;13.740;2023-02-15T00:53:56;40.90;;;22.00;;
14603;SDS011;7388;51.078;13.740;2023-02-15T00:56:22;39.50;;;23.33;;
14603;SDS011;7388;51.078;13.740;2023-02-15T00:58:48;43.53;;;23.50;;
14603;SDS011;7388;51.078;13.740;2023-02-15T01:01:18;37.85;;;20.15;;
14603;SDS011;7388;51.078;13.740;2023-02-15T01:03:45;29.48;;;19.48;;
14603;SDS011;7388;51.078;13.740;2023-02-15T01:06:11;37.90;;;21.80;;
14603;SDS011;7388;51.078;13.740;2023-02-15T01:08:38;35.25;;;20.17;;
14603;SDS011;7388;51.078;13.740;2023-02-15T01:11:05;41.58;;;20.63;;
14603;SDS011;7388;51.078;13.740;2023-02-15T01:13:32;34.13;;;19.10;;
14603;SDS011;7388;51.078;13.740;2023-02-15T01:15:58;38.03;;;18.88;;
14603;SDS011;7388;51.078;13.740;2023-02-15T01:18:24;32.43;;;18.63;;
14603;SDS011;7388;51.078;13.740;2023-02-15T01:20:50;40.90;;;21.77;;
14603;SDS011;7388;51.078;13.740;2023-02-15T01:23:16;35.33;;;19.00;;
14603;SDS011;7388;51.078;13.740;2023-02-15T01:25:41;40.33;;;20.47;;
14603;SDS011;7388;51.078;13.740;2023-02-15T01:28:07;38.07;;;21.60;;
14603;SDS011;7388;51.078;13.740;2023-02-15T01:30:33;40.03;;;21.27;;
14603;SDS011;7388;51.078;13.740;2023-02-15T01:32:59;40.80;;;21.20;;
14603;SDS011;7388;51.078;13.740;2023-02-15T01:35:28;33.15;;;19.42;;
14603;SDS011;7388;51.078;13.740;2023-02-15T01:37:54;38.67;;;20.23;;
14603;SDS011;7388;51.078;13.740;2023-02-15T01:40:21;43.90;;;23.65;;
14603;SDS011;7388;51.078;13.740;2023-02-15T01:42:51;35.95;;;19.80;;
14603;SDS011;7388;51.078;13.740;2023-02-15T01:50:50;35.33;;;20.35;;
14603;SDS011;7388;51.078;13.740;2023-02-15T01:53:28;39.50;;;21.13;;
14603;SDS011;7388;51.078;13.740;2023-02-15T01:55:59;33.60;;;21.23;;
14603;SDS011;7388;51.078;13.740;2023-02-15T01:58:29;35.70;;;19.42;;
14603;SDS011;7388;51.078;13.740;2023-02-15T02:00:57;42.10;;;20.63;;
14603;SDS011;7388;51.078;13.740;2023-02-15T02:03:36;37.95;;;19.75;;
14603;SDS011;7388;51.078;13.740;2023-02-15T02:06:10;42.10;;;19.33;;
14603;SDS011;7388;51.078;13.740;2023-02-15T02:08:36;31.95;;;18.67;;
14603;SDS011;7388;51.078;13.740;2023-02-15T02:11:02;36.13;;;19.35;;
14603;SDS011;7388;51.078;13.740;2023-02-15T02:13:34;32.72;;;20.00;;
14603;SDS011;7388;51.078;13.740;2023-02-15T02:19:17;33.42;;;19.05;;
14603;SDS011;7388;51.078;13.740;2023-02-15T02:27:39;36.58;;;19.52;;
14603;SDS011;7388;51.078;13.740;2023-02-15T02:32:52;38.72;;;20.95;;
14603;SDS011;7388;51.078;13.740;2023-02-15T02:38:24;36.38;;;19.45;;
14603;SDS011;7388;51.078;13.740;2023-02-15T02:41:16;44.45;;;22.30;;
14603;SDS011;7388;51.078;13.740;2023-02-15T02:46:30;36.17;;;20.60;;
14603;SDS011;7388;51.078;13.740;2023-02-15T02:49:11;39.60;;;19.33;;
14603;SDS011;7388;51.078;13.740;2023-02-15T02:51:37;32.55;;;18.70;;
14603;SDS011;7388;51.078;13.740;2023-02-15T02:54:04;34.57;;;19.20;;
14603;SDS011;7388;51.078;13.740;2023-02-15T02:56:39;41.47;;;20.02;;
14603;SDS011;7388;51.078;13.740;2023-02-15T03:01:44;33.80;;;17.75;;
14603;SDS011;7388;51.078;13.740;2023-02-15T03:04:31;37.70;;;19.52;;
14603;SDS011;7388;51.078;13.740;2023-02-15T03:07:03;32.33;;;18.85;;
14603;SDS011;7388;51.078;13.740;2023-02-15T03:09:33;34.17;;;18.70;;
14603;SDS011;7388;51.078;13.740;2023-02-15T03:12:09;38.30;;;20.88;;
14603;SDS011;7388;51.078;13.740;2023-02-15T03:14:38;32.63;;;17.73;;
14603;SDS011;7388;51.078;13.740;2023-02-15T03:17:06;33.15;;;19.27;;
14603;SDS011;7388;51.078;13.740;2023-02-15T03:19:34;38.67;;;19.52;;
14603;SDS011;7388;51.078;13.740;2023-02-15T03:22:10;31.10;;;18.42;;
14603;SDS011;7388;51.078;13.740;2023-02-15T03:24:40;34.50;;;20.30;;
14603;SDS011;7388;51.078;13.740;2023-02-15T03:27:13;32.63;;;16.17;;
14603;SDS011;7388;51.078;13.740;2023-02-15T03:29:42;32.75;;;18.15;;
14603;SDS011;7388;51.078;13.740;2023-02-15T03:32:14;37.05;;;19.83;;
14603;SDS011;7388;51.078;13.740;2023-02-15T03:34:42;35.50;;;19.15;;
14603;SDS011;7388;51.078;13.740;2023-02-15T03:43:08;28.92;;;17.75;;
14603;SDS011;7388;51.078;13.740;2023-02-15T03:45:39;34.10;;;18.08;;
14603;SDS011;7388;51.078;13.740;2023-02-15T03:48:20;44.95;;;20.48;;
14603;SDS011;7388;51.078;13.740;2023-02-15T03:51:08;32.92;;;16.73;;
14603;SDS011;7388;51.078;13.740;2023-02-15T03:53:58;31.13;;;16.30;;
14603;SDS011;7388;51.078;13.740;2023-02-15T03:56:28;37.95;;;19.02;;
14603;SDS011;7388;51.078;13.740;2023-02-15T03:58:55;33.65;;;18.80;;
14603;SDS011;7388;51.078;13.740;2023-02-15T04:04:28;35.42;;;19.35;;
14603;SDS011;7388;51.078;13.740;2023-02-15T04:07:08;30.15;;;16.90;;
14603;SDS011;7388;51.078;13.740;2023-02-15T04:09:35;38.55;;;19.85;;
14603;SDS011;7388;51.078;13.740;2023-02-15T04:12:19;34.05;;;18.80;;
14603;SDS011;7388;51.078;13.740;2023-02-15T04:14:45;39.60;;;19.92;;
14603;SDS011;7388;51.078;13.740;2023-02-15T04:17:29;27.25;;;15.60;;
14603;SDS011;7388;51.078;13.740;2023-02-15T04:19:55;31.43;;;16.53;;
14603;SDS011;7388;51.078;13.740;2023-02-15T04:22:40;32.15;;;17.60;;
14603;SDS011;7388;51.078;13.740;2023-02-15T04:25:24;34.25;;;16.98;;
14603;SDS011;7388;51.078;13.740;2023-02-15T04:27:51;39.90;;;18.37;;
14603;SDS011;7388;51.078;13.740;2023-02-15T04:30:20;34.67;;;18.02;;
14603;SDS011;7388;51.078;13.740;2023-02-15T04:32:47;32.85;;;19.10;;
14603;SDS011;7388;51.078;13.740;2023-02-15T04:35:13;39.05;;;18.90;;
14603;SDS011;7388;51.078;13.740;2023-02-15T04:37:40;35.60;;;18.60;;
14603;SDS011;7388;51.078;13.740;2023-02-15T04:40:07;32.40;;;19.30;;
14603;SDS011;7388;51.078;13.740;2023-02-15T04:42:34;34.38;;;17.08;;
14603;SDS011;7388;51.078;13.740;2023-02-15T04:45:00;29.23;;;17.00;;
14603;SDS011;7388;51.078;13.740;2023-02-15T04:47:26;33.30;;;18.10;;
14603;SDS011;7388;51.078;13.740;2023-02-15T04:49:51;36.83;;;19.10;;
14603;SDS011;7388;51.078;13.740;2023-02-15T04:52:17;32.70;;;16.30;;
14603;SDS011;7388;51.078;13.740;2023-02-15T04:54:43;33.23;;;17.77;;
14603;SDS011;7388;51.078;13.740;2023-02-15T04:57:09;36.53;;;17.45;;
14603;SDS011;7388;51.078;13.740;2023-02-15T04:59:35;32.60;;;18.63;;
14603;SDS011;7388;51.078;13.740;2023-02-15T05:02:01;32.20;;;18.20;;
14603;SDS011;7388;51.078;13.740;2023-02-15T05:04:27;35.63;;;20.23;;
14603;SDS011;7388;51.078;13.740;2023-02-15T05:06:52;30.97;;;17.70;;
14603;SDS011;7388;51.078;13.740;2023-02-15T05:09:18;34.03;;;18.30;;
14603;SDS011;7388;51.078;13.740;2023-02-15T05:11:44;30.43;;;17.63;;
14603;SDS011;7388;51.078;13.740;2023-02-15T05:14:10;33.80;;;18.88;;
14603;SDS011;7388;51.078;13.740;2023-02-15T05:16:36;31.50;;;17.13;;
14603;SDS011;7388;51.078;13.740;2023-02-15T05:19:01;42.50;;;19.50;;
14603;SDS011;7388;51.078;13.740;2023-02-15T05:21:28;43.17;;;19.60;;
14603;SDS011;7388;51.078;13.740;2023-02-15T05:23:53;36.03;;;16.77;;
14603;SDS011;7388;51.078;13.740;2023-02-15T05:26:20;38.70;;;18.97;;
14603;SDS011;7388;51.078;13.740;2023-02-15T05:29:06;35.75;;;19.45;;
14603;SDS011;7388;51.078;13.740;2023-02-15T05:31:32;35.00;;;16.17;;
14603;SDS011;7388;51.078;13.740;2023-02-15T05:33:58;35.95;;;20.02;;
14603;SDS011;7388;51.078;13.740;2023-02-15T05:36:24;36.83;;;19.45;;
14603;SDS011;7388;51.078;13.740;2023-02-15T05:38:50;32.87;;;17.47;;
14603;SDS011;7388;51.078;13.740;2023-02-15T05:41:16;36.83;;;15.97;;
14603;SDS011;7388;51.078;13.740;2023-02-15T05:43:42;33.60;;;19.20;;
14603;SDS011;7388;51.078;13.740;2023-02-15T05:46:08;33.80;;;18.50;;
14603;SDS011;7388;51.078;13.740;2023-02-15T05:48:34;35.08;;;18.30;;
14603;SDS011;7388;51.078;13.740;2023-02-15T05:51:02;37.15;;;18.33;;
14603;SDS011;7388;51.078;13.740;2023-02-15T05:53:30;41.65;;;18.55;;
14603;SDS011;7388;51.078;13.740;2023-02-15T05:55:57;36.72;;;19.60;;
14603;SDS011;7388;51.078;13.740;2023-02-15T05:58:27;38.05;;;19.83;;
14603;SDS011;7388;51.078;13.740;2023-02-15T06:00:55;40.95;;;16.83;;
14603;SDS011;7388;51.078;13.740;2023-02-15T06:03:22;34.60;;;19.17;;
14603;SDS011;7388;51.078;13.740;2023-02-15T06:05:48;30.83;;;17.70;;
14603;SDS011;7388;51.078;13.740;2023-02-15T06:08:14;33.90;;;18.50;;
14603;SDS011;7388;51.078;13.740;2023-02-15T06:10:40;33.38;;;18.88;;
14603;SDS011;7388;51.078;13.740;2023-02-15T06:13:06;38.50;;;18.37;;
14603;SDS011;7388;51.078;13.740;2023-02-15T06:15:32;29.10;;;17.42;;
14603;SDS011;7388;51.078;13.740;2023-02-15T06:17:57;34.53;;;18.27;;
14603;SDS011;7388;51.078;13.740;2023-02-15T06:20:24;34.22;;;18.10;;
14603;SDS011;7388;51.078;13.740;2023-02-15T06:22:53;38.35;;;18.33;;
14603;SDS011;7388;51.078;13.740;2023-02-15T06:25:19;40.25;;;19.00;;
14603;SDS011;7388;51.078;13.740;2023-02-15T06:27:44;40.07;;;17.60;;
14603;SDS011;7388;51.078;13.740;2023-02-15T06:30:10;34.87;;;18.40;;
14603;SDS011;7388;51.078;13.740;2023-02-15T06:32:36;40.47;;;19.48;;
14603;SDS011;7388;51.078;13.740;2023-02-15T06:35:02;32.83;;;19.90;;
14603;SDS011;7388;51.078;13.740;2023-02-15T06:37:28;33.60;;;19.00;;
14603;SDS011;7388;51.078;13.740;2023-02-15T06:39:54;35.50;;;19.20;;
14603;SDS011;7388;51.078;13.740;2023-02-15T06:42:21;29.47;;;17.37;;
14603;SDS011;7388;51.078;13.740;2023-02-15T06:44:47;30.48;;;17.25;;
14603;SDS011;7388;51.078;13.740;2023-02-15T06:47:13;32.20;;;18.70;;
14603;SDS011;7388;51.078;13.740;2023-02-15T06:49:39;35.03;;;18.33;;
14603;SDS011;7388;51.078;13.740;2023-02-15T06:52:04;42.08;;;19.45;;
14603;SDS011;7388;51.078;13.740;2023-02-15T06:54:30;43.27;;;19.43;;
14603;SDS011;7388;51.078;13.740;2023-02-15T06:56:56;38.73;;;20.10;;
14603;SDS011;7388;51.078;13.740;2023-02-15T06:59:22;32.30;;;17.00;;
14603;SDS011;7388;51.078;13.740;2023-02-15T07:01:48;33.87;;;18.77;;
14603;SDS011;7388;51.078;13.740;2023-02-15T07:04:16;30.58;;;18.52;;
14603;SDS011;7388;51.078;13.740;2023-02-15T07:06:42;30.53;;;17.50;;
14603;SDS011;7388;51.078;13.740;2023-02-15T07:09:08;34.17;;;17.58;;
14603;SDS011;7388;51.078;13.740;2023-02-15T07:11:34;34.42;;;18.33;;
14603;SDS011;7388;51.078;13.740;2023-02-15T07:14:18;26.63;;;15.88;;
14603;SDS011;7388;51.078;13.740;2023-02-15T07:16:43;31.70;;;13.97;;
14603;SDS011;7388;51.078;13.740;2023-02-15T07:19:09;22.83;;;13.60;;
14603;SDS011;7388;51.078;13.740;2023-02-15T07:21:35;28.20;;;14.23;;
14603;SDS011;7388;51.078;13.740;2023-02-15T07:24:01;20.42;;;12.40;;
14603;SDS011;7388;51.078;13.740;2023-02-15T07:26:27;26.60;;;13.82;;
14603;SDS011;7388;51.078;13.740;2023-02-15T07:28:53;17.83;;;11.63;;
14603;SDS011;7388;51.078;13.740;2023-02-15T07:31:19;20.73;;;11.20;;
14603;SDS011;7388;51.078;13.740;2023-02-15T07:33:45;23.37;;;10.77;;
14603;SDS011;7388;51.078;13.740;2023-02-15T07:36:11;16.43;;;9.60;;
14603;SDS011;7388;51.078;13.740;2023-02-15T07:38:37;19.30;;;10.90;;
14603;SDS011;7388;51.078;13.740;2023-02-15T07:41:09;14.82;;;10.65;;
14603;SDS011;7388;51.078;13.740;2023-02-15T07:43:37;21.33;;;10.68;;
14603;SDS011;7388;51.078;13.740;2023-02-15T07:46:06;21.35;;;10.25;;
14603;SDS011;7388;51.078;13.740;2023-02-15T07:48:34;18.20;;;9.88;;
14603;SDS011;7388;51.078;13.740;2023-02-15T07:51:01;18.92;;;10.15;;
14603;SDS011;7388;51.078;13.740;2023-02-15T07:53:28;14.00;;;9.13;;
14603;SDS011;7388;51.078;13.740;2023-02-15T07:55:54;14.90;;;8.30;;
14603;SDS011;7388;51.078;13.740;2023-02-15T07:58:26;12.27;;;9.20;;
14603;SDS011;7388;51.078;13.740;2023-02-15T08:01:11;17.17;;;9.20;;
14603;SDS011;7388;51.078;13.740;2023-02-15T08:03:37;17.23;;;9.30;;
14603;SDS011;7388;51.078;13.740;2023-02-15T08:06:03;16.30;;;9.40;;
14603;SDS011;7388;51.078;13.740;2023-02-15T08:08:29;15.23;;;9.57;;
14603;SDS011;7388;51.078;13.740;2023-02-15T08:16:36;16.15;;;10.15;;
14603;SDS011;7388;51.078;13.740;2023-02-15T08:19:06;17.65;;;11.05;;
14603;SDS011;7388;51.078;13.740;2023-02-15T08:21:38;15.25;;;8.60;;
14603;SDS011;7388;51.078;13.740;2023-02-15T08:24:05;12.90;;;8.95;;
14603;SDS011;7388;51.078;13.740;2023-02-15T08:26:33;14.32;;;9.27;;
14603;SDS011;7388;51.078;13.740;2023-02-15T08:29:00;16.15;;;8.50;;
14603;SDS011;7388;51.078;13.740;2023-02-15T08:31:26;14.45;;;9.38;;
14603;SDS011;7388;51.078;13.740;2023-02-15T08:33:53;11.93;;;8.68;;
14603;SDS011;7388;51.078;13.740;2023-02-15T08:36:21;13.50;;;10.32;;
14603;SDS011;7388;51.078;13.740;2023-02-15T08:38:48;16.13;;;8.63;;
14603;SDS011;7388;51.078;13.740;2023-02-15T08:41:15;16.08;;;10.35;;
14603;SDS011;7388;51.078;13.740;2023-02-15T08:43:51;14.73;;;9.27;;
14603;SDS011;7388;51.078;13.740;2023-02-15T08:46:18;13.45;;;7.53;;
14603;SDS011;7388;51.078;13.740;2023-02-15T08:48:45;12.60;;;8.35;;
14603;SDS011;7388;51.078;13.740;2023-02-15T08:51:13;12.75;;;9.27;;
14603;SDS011;7388;51.078;13.740;2023-02-15T08:53:47;14.13;;;8.15;;
14603;SDS011;7388;51.078;13.740;2023-02-15T08:56:14;13.65;;;8.45;;
14603;SDS011;7388;51.078;13.740;2023-02-15T08:58:41;15.90;;;9.43;;
14603;SDS011;7388;51.078;13.740;2023-02-15T09:01:26;13.07;;;8.40;;
14603;SDS011;7388;51.078;13.740;2023-02-15T09:04:05;12.52;;;8.07;;
14603;SDS011;7388;51.078;13.740;2023-02-15T09:06:35;13.85;;;8.80;;
14603;SDS011;7388;51.078;13.740;2023-02-15T09:09:05;11.68;;;8.50;;
14603;SDS011;7388;51.078;13.740;2023-02-15T09:11:35;14.88;;;9.77;;
14603;SDS011;7388;51.078;13.740;2023-02-15T09:14:04;15.90;;;9.65;;
14603;SDS011;7388;51.078;13.740;2023-02-15T09:16:33;14.48;;;8.20;;
14603;SDS011;7388;51.078;13.740;2023-02-15T09:18:59;11.50;;;8.05;;
14603;SDS011;7388;51.078;13.740;2023-02-15T09:21:30;15.90;;;8.57;;
14603;SDS011;7388;51.078;13.740;2023-02-15T09:23:56;14.63;;;8.10;;
14603;SDS011;7388;51.078;13.740;2023-02-15T09:26:25;16.23;;;9.30;;
14603;SDS011;7388;51.078;13.740;2023-02-15T09:28:51;15.40;;;9.13;;
14603;SDS011;7388;51.078;13.740;2023-02-15T09:31:20;11.68;;;8.70;;
14603;SDS011;7388;51.078;13.740;2023-02-15T09:33:48;11.60;;;7.68;;
14603;SDS011;7388;51.078;13.740;2023-02-15T09:36:24;15.07;;;9.52;;
14603;SDS011;7388;51.078;13.740;2023-02-15T09:39:03;15.75;;;9.77;;
14603;SDS011;7388;51.078;13.740;2023-02-15T09:50:26;12.75;;;8.90;;
14603;SDS011;7388;51.078;13.740;2023-02-15T10:01:36;14.75;;;10.60;;
14603;SDS011;7388;51.078;13.740;2023-02-15T10:09:49;21.60;;;12.50;;
14603;SDS011;7388;51.078;13.740;2023-02-15T10:20:17;17.83;;;11.52;;
14603;SDS011;7388;51.078;13.740;2023-02-15T10:28:06;14.57;;;8.65;;
14603;SDS011;7388;51.078;13.740;2023-02-15T10:30:52;20.67;;;11.95;;
14603;SDS011;7388;51.078;13.740;2023-02-15T10:33:34;19.73;;;11.98;;
14603;SDS011;7388;51.078;13.740;2023-02-15T10:36:08;17.95;;;11.50;;
14603;SDS011;7388;51.078;13.740;2023-02-15T10:38:47;19.50;;;11.00;;
14603;SDS011;7388;51.078;13.740;2023-02-15T10:41:29;18.85;;;13.00;;
14603;SDS011;7388;51.078;13.740;2023-02-15T10:44:31;18.30;;;12.20;;
14603;SDS011;7388;51.078;13.740;2023-02-15T11:01:03;17.38;;;11.27;;
14603;SDS011;7388;51.078;13.740;2023-02-15T11:06:54;14.63;;;9.60;;
14603;SDS011;7388;51.078;13.740;2023-02-15T11:09:25;16.20;;;10.85;;
14603;SDS011;7388;51.078;13.740;2023-02-15T11:12:01;17.90;;;10.48;;
14603;SDS011;7388;51.078;13.740;2023-02-15T11:14:32;23.83;;;11.45;;
14603;SDS011;7388;51.078;13.740;2023-02-15T11:17:39;17.42;;;10.73;;
14603;SDS011;7388;51.078;13.740;2023-02-15T11:20:23;18.73;;;11.00;;
14603;SDS011;7388;51.078;13.740;2023-02-15T11:22:53;15.95;;;10.32;;
14603;SDS011;7388;51.078;13.740;2023-02-15T11:25:20;18.25;;;10.45;;
14603;SDS011;7388;51.078;13.740;2023-02-15T11:27:50;14.55;;;10.50;;
14603;SDS011;7388;51.078;13.740;2023-02-15T11:30:20;15.05;;;10.00;;
14603;SDS011;7388;51.078;13.740;2023-02-15T11:32:48;16.77;;;11.35;;
14603;SDS011;7388;51.078;13.740;2023-02-15T11:35:24;16.60;;;11.25;;
14603;SDS011;7388;51.078;13.740;2023-02-15T11:38:14;16.95;;;11.35;;
14603;SDS011;7388;51.078;13.740;2023-02-15T11:40:48;17.48;;;9.88;;
14603;SDS011;7388;51.078;13.740;2023-02-15T11:43:19;15.70;;;9.80;;
14603;SDS011;7388;51.078;13.740;2023-02-15T11:45:56;17.52;;;10.93;;
14603;SDS011;7388;51.078;13.740;2023-02-15T11:48:21;17.07;;;9.90;;
14603;SDS011;7388;51.078;13.740;2023-02-15T11:50:48;16.75;;;10.77;;
14603;SDS011;7388;51.078;13.740;2023-02-15T11:53:17;16.93;;;10.73;;
14603;SDS011;7388;51.078;13.740;2023-02-15T11:55:47;16.40;;;9.02;;
14603;SDS011;7388;51.078;13.740;2023-02-15T12:00:48;17.60;;;12.75;;
14603;SDS011;7388;51.078;13.740;2023-02-15T12:06:04;18.95;;;11.00;;
14603;SDS011;7388;51.078;13.740;2023-02-15T12:08:38;15.45;;;10.20;;
14603;SDS011;7388;51.078;13.740;2023-02-15T12:11:09;15.88;;;11.10;;
14603;SDS011;7388;51.078;13.740;2023-02-15T12:13:57;24.73;;;13.43;;
14603;SDS011;7388;51.078;13.740;2023-02-15T12:16:24;15.38;;;9.48;;
14603;SDS011;7388;51.078;13.740;2023-02-15T12:18:53;19.08;;;11.90;;
14603;SDS011;7388;51.078;13.740;2023-02-15T12:21:25;18.20;;;11.70;;
14603;SDS011;7388;51.078;13.740;2023-02-15T12:23:54;22.00;;;11.95;;
14603;SDS011;7388;51.078;13.740;2023-02-15T12:26:34;17.73;;;11.43;;
14603;SDS011;7388;51.078;13.740;2023-02-15T12:29:06;14.10;;;9.68;;
14603;SDS011;7388;51.078;13.740;2023-02-15T12:31:44;17.67;;;11.15;;
14603;SDS011;7388;51.078;13.740;2023-02-15T12:34:19;13.02;;;9.57;;
14603;SDS011;7388;51.078;13.740;2023-02-15T12:36:53;19.13;;;12.23;;
14603;SDS011;7388;51.078;13.740;2023-02-15T12:39:26;15.45;;;10.70;;
14603;SDS011;7388;51.078;13.740;2023-02-15T12:44:20;14.30;;;9.53;;
14603;SDS011;7388;51.078;13.740;2023-02-15T12:49:32;16.58;;;10.50;;
14603;SDS011;7388;51.078;13.740;2023-02-15T12:52:03;15.45;;;11.18;;
14603;SDS011;7388;51.078;13.740;2023-02-15T12:57:13;14.65;;;10.40;;
14603;SDS011;7388;51.078;13.740;2023-02-15T13:00:04;16.30;;;10.02;;
14603;SDS011;7388;51.078;13.740;2023-02-15T13:02:49;18.15;;;11.20;;
14603;SDS011;7388;51.078;13.740;2023-02-15T13:08:02;15.90;;;10.48;;
14603;SDS011;7388;51.078;13.740;2023-02-15T13:10:29;16.10;;;11.02;;
14603;SDS011;7388;51.078;13.740;2023-02-15T13:12:58;15.25;;;11.63;;
14603;SDS011;7388;51.078;13.740;2023-02-15T13:15:46;14.82;;;10.65;;
14603;SDS011;7388;51.078;13.740;2023-02-15T13:18:20;14.05;;;10.00;;
14603;SDS011;7388;51.078;13.740;2023-02-15T13:21:13;14.48;;;11.48;;
14603;SDS011;7388;51.078;13.740;2023-02-15T13:23:45;14.43;;;10.60;;
14603;SDS011;7388;51.078;13.740;2023-02-15T13:26:14;14.07;;;10.20;;
14603;SDS011;7388;51.078;13.740;2023-02-15T13:28:47;14.20;;;10.40;;
14603;SDS011;7388;51.078;13.740;2023-02-15T13:31:17;17.05;;;11.15;;
14603;SDS011;7388;51.078;13.740;2023-02-15T13:33:51;15.23;;;10.98;;
14603;SDS011;7388;51.078;13.740;2023-02-15T13:36:45;19.55;;;14.48;;
14603;SDS011;7388;51.078;13.740;2023-02-15T13:39:22;21.73;;;13.10;;
14603;SDS011;7388;51.078;13.740;2023-02-15T13:55:51;20.65;;;12.75;;
14603;SDS011;7388;51.078;13.740;2023-02-15T13:58:30;17.95;;;13.23;;
14603;SDS011;7388;51.078;13.740;2023-02-15T14:01:15;16.33;;;12.75;;
14603;SDS011;7388;51.078;13.740;2023-02-15T14:03:56;16.35;;;11.52;;
14603;SDS011;7388;51.078;13.740;2023-02-15T14:06:28;18.98;;;12.93;;
14603;SDS011;7388;51.078;13.740;2023-02-15T14:24:56;15.88;;;11.88;;
14603;SDS011;7388;51.078;13.740;2023-02-15T14:27:39;17.30;;;13.18;;
14603;SDS011;7388;51.078;13.740;2023-02-15T14:30:29;15.25;;;12.75;;
14603;SDS011;7388;51.078;13.740;2023-02-15T14:33:04;17.25;;;11.40;;
14603;SDS011;7388;51.078;13.740;2023-02-15T14:35:43;19.20;;;14.52;;
14603;SDS011;7388;51.078;13.740;2023-02-15T14:46:44;22.80;;;14.18;;
14603;SDS011;7388;51.078;13.740;2023-02-15T14:49:25;20.52;;;13.82;;
14603;SDS011;7388;51.078;13.740;2023-02-15T14:52:03;20.90;;;13.68;;
14603;SDS011;7388;51.078;13.740;2023-02-15T15:05:08;17.50;;;13.20;;
14603;SDS011;7388;51.078;13.740;2023-02-15T15:07:43;18.08;;;13.43;;
14603;SDS011;7388;51.078;13.740;2023-02-15T15:12:44;23.92;;;15.40;;
14603;SDS011;7388;51.078;13.740;2023-02-15T15:15:11;20.27;;;14.35;;
14603;SDS011;7388;51.078;13.740;2023-02-15T15:17:51;24.92;;;13.90;;
14603;SDS011;7388;51.078;13.740;2023-02-15T15:20:47;27.25;;;16.40;;
14603;SDS011;7388;51.078;13.740;2023-02-15T15:42:51;23.38;;;16.02;;
14603;SDS011;7388;51.078;13.740;2023-02-15T15:50:46;32.30;;;18.52;;
14603;SDS011;7388;51.078;13.740;2023-02-15T15:53:18;25.33;;;16.40;;
14603;SDS011;7388;51.078;13.740;2023-02-15T15:55:47;31.88;;;18.17;;
14603;SDS011;7388;51.078;13.740;2023-02-15T15:58:16;38.58;;;24.52;;
14603;SDS011;7388;51.078;13.740;2023-02-15T16:00:48;26.52;;;15.80;;
14603;SDS011;7388;51.078;13.740;2023-02-15T16:03:27;26.40;;;15.93;;
14603;SDS011;7388;51.078;13.740;2023-02-15T16:05:54;29.00;;;17.30;;
14603;SDS011;7388;51.078;13.740;2023-02-15T16:10:55;31.15;;;17.95;;
14603;SDS011;7388;51.078;13.740;2023-02-15T16:13:21;26.42;;;16.42;;
14603;SDS011;7388;51.078;13.740;2023-02-15T16:15:47;30.97;;;18.23;;
14603;SDS011;7388;51.078;13.740;2023-02-15T16:18:17;25.35;;;15.98;;
14603;SDS011;7388;51.078;13.740;2023-02-15T16:21:04;32.50;;;18.05;;
14603;SDS011;7388;51.078;13.740;2023-02-15T16:26:11;30.27;;;19.30;;
14603;SDS011;7388;51.078;13.740;2023-02-15T16:28:47;28.98;;;16.02;;
14603;SDS011;7388;51.078;13.740;2023-02-15T16:31:17;31.50;;;19.52;;
14603;SDS011;7388;51.078;13.740;2023-02-15T16:33:43;27.27;;;17.58;;
14603;SDS011;7388;51.078;13.740;2023-02-15T16:36:19;27.02;;;16.92;;
14603;SDS011;7388;51.078;13.740;2023-02-15T16:39:05;27.70;;;17.92;;
14603;SDS011;7388;51.078;13.740;2023-02-15T16:41:33;28.90;;;18.83;;
14603;SDS011;7388;51.078;13.740;2023-02-15T16:44:03;30.95;;;18.65;;
14603;SDS011;7388;51.078;13.740;2023-02-15T16:46:38;35.47;;;20.77;;
14603;SDS011;7388;51.078;13.740;2023-02-15T16:49:16;30.10;;;17.10;;
14603;SDS011;7388;51.078;13.740;2023-02-15T16:51:44;32.47;;;16.35;;
14603;SDS011;7388;51.078;13.740;2023-02-15T16:54:20;29.98;;;18.20;;
14603;SDS011;7388;51.078;13.740;2023-02-15T16:56:47;33.65;;;19.52;;
14603;SDS011;7388;51.078;13.740;2023-02-15T16:59:17;30.58;;;18.55;;
14603;SDS011;7388;51.078;13.740;2023-02-15T17:02:10;31.33;;;18.27;;
14603;SDS011;7388;51.078;13.740;2023-02-15T17:05:07;28.83;;;17.65;;
14603;SDS011;7388;51.078;13.740;2023-02-15T17:07:33;33.25;;;20.27;;
14603;SDS011;7388;51.078;13.740;2023-02-15T17:10:16;33.13;;;17.38;;
14603;SDS011;7388;51.078;13.740;2023-02-15T17:13:03;31.23;;;18.60;;
14603;SDS011;7388;51.078;13.740;2023-02-15T17:15:43;41.75;;;18.83;;
14603;SDS011;7388;51.078;13.740;2023-02-15T17:18:25;28.30;;;17.67;;
14603;SDS011;7388;51.078;13.740;2023-02-15T17:20:55;34.53;;;18.45;;
14603;SDS011;7388;51.078;13.740;2023-02-15T17:23:45;36.22;;;18.92;;
14603;SDS011;7388;51.078;13.740;2023-02-15T17:26:23;32.90;;;19.77;;
14603;SDS011;7388;51.078;13.740;2023-02-15T17:28:52;35.10;;;19.17;;
14603;SDS011;7388;51.078;13.740;2023-02-15T17:31:36;31.90;;;17.63;;
14603;SDS011;7388;51.078;13.740;2023-02-15T17:34:02;42.35;;;18.55;;
14603;SDS011;7388;51.078;13.740;2023-02-15T17:36:30;37.72;;;20.08;;
14603;SDS011;7388;51.078;13.740;2023-02-15T17:41:22;33.33;;;18.50;;
14603;SDS011;7388;51.078;13.740;2023-02-15T17:43:49;30.38;;;18.27;;
14603;SDS011;7388;51.078;13.740;2023-02-15T17:46:15;35.33;;;20.27;;
14603;SDS011;7388;51.078;13.740;2023-02-15T17:48:47;38.08;;;22.25;;
14603;SDS011;7388;51.078;13.740;2023-02-15T17:51:15;37.50;;;20.38;;
14603;SDS011;7388;51.078;13.740;2023-02-15T17:53:42;34.45;;;20.40;;
14603;SDS011;7388;51.078;13.740;2023-02-15T17:56:28;37.33;;;21.02;;
14603;SDS011;7388;51.078;13.740;2023-02-15T17:58:54;36.63;;;20.50;;
14603;SDS011;7388;51.078;13.740;2023-02-15T18:01:39;37.13;;;21.02;;